createdAt,value
2023-02-05T00:00:21.157Z,13.35
2023-02-05T00:02:51.225Z,13.60
2023-02-05T00:05:21.311Z,17.48
2023-02-05T00:07:51.321Z,14.05
2023-02-05T00:10:21.326Z,12.20
2023-02-05T00:12:51.347Z,14.13
2023-02-05T00:15:21.346Z,12.50
2023-02-05T00:17:51.430Z,9.85
2023-02-05T00:20:20.110Z,13.93
2023-02-05T00:22:48.216Z,11.27
2023-02-05T00:25:17.250Z,13.68
2023-02-05T00:27:45.078Z,15.48
2023-02-05T00:30:13.866Z,15.88
2023-02-05T00:32:41.936Z,14.50
2023-02-05T00:35:10.560Z,13.45
2023-02-05T00:37:38.697Z,12.60
2023-02-05T00:40:07.817Z,15.73
2023-02-05T00:42:35.507Z,14.65
2023-02-05T00:45:04.812Z,15.80
2023-02-05T00:47:32.322Z,13.52
2023-02-05T00:50:00.733Z,13.82
2023-02-05T00:52:29.300Z,15.20
2023-02-05T00:54:58.333Z,19.40
2023-02-05T00:57:26.501Z,13.02
2023-02-05T00:59:54.508Z,19.45
2023-02-05T01:02:24.312Z,12.25
2023-02-05T01:04:52.973Z,14.65
2023-02-05T01:07:22.888Z,13.88
2023-02-05T01:09:51.378Z,17.33
2023-02-05T01:12:20.214Z,17.10
2023-02-05T01:14:48.268Z,15.90
2023-02-05T01:17:16.708Z,15.18
2023-02-05T01:19:45.134Z,13.52
2023-02-05T01:22:13.778Z,14.52
2023-02-05T01:24:41.891Z,12.95
2023-02-05T01:27:10.680Z,13.02
2023-02-05T01:29:39.046Z,11.57
2023-02-05T01:32:07.850Z,14.02
2023-02-05T01:34:36.385Z,10.45
2023-02-05T01:37:04.401Z,18.85
2023-02-05T01:39:32.738Z,14.32
2023-02-05T01:42:01.321Z,9.27
2023-02-05T01:44:31.461Z,12.55
2023-02-05T01:47:01.513Z,9.18
2023-02-05T01:49:43.186Z,12.20
2023-02-05T01:52:18.339Z,11.15
2023-02-05T01:54:53.264Z,8.73
2023-02-05T01:57:26.178Z,9.13
2023-02-05T01:59:55.835Z,10.90
2023-02-05T02:02:24.209Z,11.60
2023-02-05T02:05:08.546Z,11.57
2023-02-05T02:07:36.610Z,8.38
2023-02-05T02:10:08.737Z,11.15
2023-02-05T02:12:43.046Z,8.95
2023-02-05T02:15:23.742Z,10.05
2023-02-05T02:18:22.041Z,10.02
2023-02-05T02:21:25.765Z,10.20
2023-02-05T02:24:17.217Z,14.95
2023-02-05T02:27:49.597Z,10.02
2023-02-05T02:30:34.235Z,10.15
2023-02-05T02:33:32.293Z,7.53
2023-02-05T02:37:09.072Z,10.00
2023-02-05T02:40:00.989Z,12.80
2023-02-05T02:43:17.661Z,8.25
2023-02-05T02:46:10.066Z,11.77
2023-02-05T02:48:43.683Z,11.15
2023-02-05T02:51:20.713Z,8.73
2023-02-05T02:54:00.147Z,14.65
2023-02-05T02:56:39.569Z,6.93
2023-02-05T02:59:24.258Z,8.85
2023-02-05T03:02:04.714Z,10.10
2023-02-05T03:04:42.807Z,11.23
2023-02-05T03:07:34.553Z,12.48
2023-02-05T03:10:41.147Z,9.13
2023-02-05T03:13:13.193Z,10.52
2023-02-05T03:15:45.706Z,8.45
2023-02-05T03:18:19.553Z,6.50
2023-02-05T03:21:05.927Z,10.57
2023-02-05T03:23:36.061Z,8.52
2023-02-05T03:26:19.542Z,11.93
2023-02-05T03:28:50.059Z,11.65
2023-02-05T03:31:55.434Z,16.17
2023-02-05T03:34:43.129Z,9.65
2023-02-05T03:38:28.594Z,12.20
2023-02-05T03:41:56.487Z,10.23
2023-02-05T03:45:29.252Z,7.97
2023-02-05T03:48:29.187Z,11.18
2023-02-05T03:51:45.576Z,6.97
2023-02-05T03:54:29.436Z,7.25
2023-02-05T03:57:28.168Z,7.35
2023-02-05T04:00:00.005Z,9.10
2023-02-05T04:02:30.548Z,11.13
2023-02-05T04:05:00.686Z,6.97
2023-02-05T04:07:30.726Z,6.95
2023-02-05T04:10:00.839Z,14.57
2023-02-05T04:12:30.873Z,10.68
2023-02-05T04:15:00.914Z,7.30
2023-02-05T04:17:30.901Z,8.25
2023-02-05T04:20:01.125Z,8.85
2023-02-05T04:22:31.235Z,7.80
2023-02-05T04:25:01.295Z,7.40
2023-02-05T04:27:31.345Z,8.95
2023-02-05T04:30:00.031Z,7.88
2023-02-05T04:32:28.738Z,9.27
2023-02-05T04:34:56.898Z,10.43
2023-02-05T04:37:25.484Z,7.07
2023-02-05T04:39:53.889Z,8.25
2023-02-05T04:42:22.618Z,12.32
2023-02-05T04:44:51.371Z,6.03
2023-02-05T04:47:19.172Z,9.57
2023-02-05T04:49:47.647Z,10.05
2023-02-05T04:52:16.070Z,10.40
2023-02-05T04:54:44.542Z,7.90
2023-02-05T04:57:12.880Z,9.82
2023-02-05T04:59:41.479Z,8.45
2023-02-05T05:02:09.899Z,8.18
2023-02-05T05:04:38.362Z,11.18
2023-02-05T05:07:06.897Z,10.80
2023-02-05T05:09:37.333Z,10.45
2023-02-05T05:12:10.537Z,9.00
2023-02-05T05:14:40.851Z,9.63
2023-02-05T05:17:12.652Z,10.05
2023-02-05T05:19:42.750Z,8.68
2023-02-05T05:22:12.752Z,8.80
2023-02-05T05:24:42.867Z,11.85
2023-02-05T05:27:12.985Z,8.27
2023-02-05T05:29:43.064Z,10.07
2023-02-05T05:32:14.353Z,12.32
2023-02-05T05:34:44.480Z,10.27
2023-02-05T05:37:14.529Z,8.45
2023-02-05T05:40:03.381Z,8.77
2023-02-05T05:42:52.055Z,9.38
2023-02-05T05:45:22.069Z,12.13
2023-02-05T05:47:52.137Z,10.35
2023-02-05T05:50:22.121Z,9.13
2023-02-05T05:52:52.631Z,12.00
2023-02-05T05:55:22.631Z,10.13
2023-02-05T05:57:52.640Z,9.23
2023-02-05T06:00:22.984Z,9.30
2023-02-05T06:02:53.032Z,9.68
2023-02-05T06:05:23.085Z,10.40
2023-02-05T06:07:53.081Z,12.93
2023-02-05T06:10:24.175Z,10.15
2023-02-05T06:12:55.380Z,10.93
2023-02-05T06:15:26.834Z,11.05
2023-02-05T06:17:56.850Z,12.75
2023-02-05T06:20:27.273Z,10.27
2023-02-05T06:22:57.293Z,9.30
2023-02-05T06:25:27.346Z,13.88
2023-02-05T06:27:57.463Z,9.00
2023-02-05T06:30:27.937Z,10.20
2023-02-05T06:32:58.009Z,12.43
2023-02-05T06:35:28.136Z,12.68
2023-02-05T06:37:58.184Z,13.27
2023-02-05T06:40:28.511Z,10.05
2023-02-05T06:42:58.585Z,10.70
2023-02-05T06:45:28.644Z,9.63
2023-02-05T06:47:59.146Z,14.88
2023-02-05T06:50:29.421Z,12.55
2023-02-05T06:52:59.445Z,13.10
2023-02-05T06:55:29.479Z,11.70
2023-02-05T06:57:59.552Z,11.10
2023-02-05T07:00:30.980Z,10.02
2023-02-05T07:03:02.360Z,10.82
2023-02-05T07:05:35.003Z,9.50
2023-02-05T07:08:06.854Z,9.30
2023-02-05T07:10:36.957Z,8.85
2023-02-05T07:13:06.985Z,8.57
2023-02-05T07:15:38.815Z,8.15
2023-02-05T07:18:07.139Z,13.95
2023-02-05T07:20:35.350Z,9.20
2023-02-05T07:23:05.600Z,8.05
2023-02-05T07:25:38.336Z,12.02
2023-02-05T07:28:09.412Z,10.60
2023-02-05T07:30:39.555Z,8.07
2023-02-05T07:33:09.766Z,15.65
2023-02-05T07:35:39.892Z,11.05
2023-02-05T07:38:10.979Z,12.68
2023-02-05T07:40:40.965Z,11.00
2023-02-05T07:43:10.884Z,8.73
2023-02-05T07:45:40.629Z,14.43
2023-02-05T07:48:10.356Z,12.27
2023-02-05T07:50:47.601Z,13.02
2023-02-05T07:53:15.339Z,14.02
2023-02-05T07:55:46.652Z,13.80
2023-02-05T07:58:15.916Z,13.50
2023-02-05T08:00:46.518Z,13.50
2023-02-05T08:03:15.794Z,18.33
2023-02-05T08:05:45.564Z,12.38
2023-02-05T08:08:15.320Z,12.20
2023-02-05T08:10:45.008Z,10.77
2023-02-05T08:13:15.011Z,10.20
2023-02-05T08:15:44.735Z,10.00
2023-02-05T08:18:14.620Z,10.27
2023-02-05T08:20:45.228Z,10.82
2023-02-05T08:23:15.246Z,13.27
2023-02-05T08:25:44.991Z,12.15
2023-02-05T08:28:15.149Z,11.98
2023-02-05T08:30:45.064Z,9.18
2023-02-05T08:33:14.962Z,9.18
2023-02-05T08:35:44.880Z,10.55
2023-02-05T08:38:17.362Z,10.55
2023-02-05T08:40:47.239Z,8.10
2023-02-05T08:43:14.417Z,7.65
2023-02-05T08:45:48.269Z,8.75
2023-02-05T08:48:18.269Z,9.90
2023-02-05T08:50:47.914Z,6.93
2023-02-05T08:53:17.725Z,10.43
2023-02-05T08:56:00.337Z,8.77
2023-02-05T08:58:30.420Z,7.60
2023-02-05T09:01:17.169Z,9.00
2023-02-05T09:03:47.295Z,9.75
2023-02-05T09:06:17.349Z,7.57
2023-02-05T09:08:47.449Z,10.57
2023-02-05T09:11:23.695Z,9.70
2023-02-05T09:13:54.372Z,10.00
2023-02-05T09:16:25.707Z,8.80
2023-02-05T09:18:57.962Z,9.52
2023-02-05T09:21:27.242Z,13.73
2023-02-05T09:23:57.732Z,8.95
2023-02-05T09:26:26.068Z,7.97
2023-02-05T09:28:55.262Z,11.60
2023-02-05T09:31:23.998Z,10.73
2023-02-05T09:33:51.938Z,12.63
2023-02-05T09:36:23.530Z,12.48
2023-02-05T09:39:01.965Z,10.75
2023-02-05T09:41:59.366Z,9.13
2023-02-05T09:45:31.483Z,12.50
2023-02-05T09:49:29.674Z,12.85
2023-02-05T09:52:27.422Z,12.13
2023-02-05T09:55:33.985Z,13.65
2023-02-05T09:58:17.239Z,12.88
2023-02-05T10:02:00.034Z,14.02
2023-02-05T10:04:30.444Z,11.70
2023-02-05T10:07:24.666Z,15.27
2023-02-05T10:10:44.116Z,12.07
2023-02-05T10:13:49.345Z,13.90
2023-02-05T10:16:48.271Z,13.45
2023-02-05T10:19:49.728Z,9.80
2023-02-05T10:23:16.987Z,11.77
2023-02-05T10:26:13.520Z,11.95
2023-02-05T10:29:10.651Z,9.13
2023-02-05T10:32:29.598Z,8.60
2023-02-05T10:35:31.218Z,9.30
2023-02-05T10:38:02.968Z,7.57
2023-02-05T10:40:46.632Z,8.20
2023-02-05T10:43:26.606Z,10.65
2023-02-05T10:45:59.785Z,8.75
2023-02-05T10:48:52.846Z,6.55
2023-02-05T10:51:42.825Z,5.60
2023-02-05T10:54:31.119Z,6.65
2023-02-05T10:57:02.115Z,8.67
2023-02-05T10:59:57.070Z,7.53
2023-02-05T11:02:42.930Z,7.75
2023-02-05T11:05:40.452Z,6.28
2023-02-05T11:08:44.771Z,7.10
2023-02-05T11:11:32.585Z,9.48
2023-02-05T11:14:08.056Z,9.15
2023-02-05T11:16:45.647Z,8.50
2023-02-05T11:19:27.756Z,7.13
2023-02-05T11:22:04.573Z,6.50
2023-02-05T11:24:42.550Z,6.72
2023-02-05T11:27:32.960Z,8.30
2023-02-05T11:30:53.969Z,9.98
2023-02-05T11:33:24.656Z,10.63
2023-02-05T11:36:08.170Z,9.30
2023-02-05T11:38:56.484Z,8.73
2023-02-05T11:41:51.971Z,6.85
2023-02-05T11:44:35.773Z,8.45
2023-02-05T11:47:05.939Z,8.43
2023-02-05T11:49:41.682Z,8.45
2023-02-05T11:52:23.663Z,11.32
2023-02-05T11:54:55.072Z,4.70
2023-02-05T11:57:38.946Z,7.25
2023-02-05T12:00:08.714Z,5.65
2023-02-05T12:02:42.109Z,8.02
2023-02-05T12:05:26.132Z,10.57
2023-02-05T12:08:30.457Z,9.73
2023-02-05T12:12:02.327Z,7.82
2023-02-05T12:15:38.011Z,9.18
2023-02-05T12:18:51.237Z,4.65
2023-02-05T12:22:00.101Z,5.63
2023-02-05T12:24:53.971Z,5.25
2023-02-05T12:27:32.681Z,7.45
2023-02-05T12:30:23.866Z,8.70
2023-02-05T12:33:19.096Z,9.02
2023-02-05T12:36:39.286Z,4.65
2023-02-05T12:40:09.221Z,7.60
2023-02-05T12:43:23.283Z,6.35
2023-02-05T12:46:33.382Z,6.95
2023-02-05T12:49:33.916Z,7.18
2023-02-05T12:52:52.536Z,6.43
2023-02-05T12:56:25.026Z,4.93
2023-02-05T12:59:40.175Z,9.90
2023-02-05T13:03:23.998Z,8.20
2023-02-05T13:06:42.329Z,3.97
2023-02-05T13:09:36.403Z,4.55
2023-02-05T13:12:29.630Z,3.95
2023-02-05T13:15:23.090Z,7.80
2023-02-05T13:18:14.660Z,4.50
2023-02-05T13:21:34.384Z,5.93
2023-02-05T13:25:00.049Z,4.75
2023-02-05T13:28:02.433Z,4.40
2023-02-05T13:30:54.928Z,3.22
2023-02-05T13:33:25.108Z,10.13
2023-02-05T13:36:47.183Z,6.93
2023-02-05T13:39:38.590Z,6.22
2023-02-05T13:42:54.910Z,5.13
2023-02-05T13:46:29.400Z,8.57
2023-02-05T13:50:18.281Z,5.60
2023-02-05T13:52:53.461Z,5.22
2023-02-05T13:56:19.489Z,7.63
2023-02-05T13:59:37.150Z,7.43
2023-02-05T14:02:42.194Z,5.20
2023-02-05T14:05:13.822Z,6.28
2023-02-05T14:07:51.988Z,10.25
2023-02-05T14:10:45.067Z,9.40
2023-02-05T14:13:34.611Z,5.43
2023-02-05T14:16:27.962Z,10.00
2023-02-05T14:19:00.920Z,4.70
2023-02-05T14:21:30.850Z,5.88
2023-02-05T14:24:50.394Z,5.82
2023-02-05T14:27:38.406Z,5.85
2023-02-05T14:30:30.031Z,6.38
2023-02-05T14:33:35.580Z,9.98
2023-02-05T14:36:18.315Z,6.28
2023-02-05T14:39:04.110Z,6.63
2023-02-05T14:41:53.369Z,4.82
2023-02-05T14:47:31.718Z,6.28
2023-02-05T14:50:23.742Z,7.10
2023-02-05T14:53:02.623Z,4.50
2023-02-05T14:55:43.925Z,4.82
2023-02-05T14:58:45.205Z,3.83
2023-02-05T15:01:42.733Z,4.88
2023-02-05T15:04:50.408Z,5.22
2023-02-05T15:07:28.679Z,5.25
2023-02-05T15:10:08.722Z,6.03
2023-02-05T15:13:15.407Z,5.38
2023-02-05T15:16:13.141Z,7.70
2023-02-05T15:19:05.805Z,7.55
2023-02-05T15:21:53.182Z,9.57
2023-02-05T15:24:29.750Z,6.07
2023-02-05T15:27:21.530Z,5.22
2023-02-05T15:29:57.419Z,7.30
2023-02-05T15:32:50.927Z,5.78
2023-02-05T15:35:30.305Z,7.50
2023-02-05T15:38:30.121Z,7.45
2023-02-05T15:41:07.635Z,6.47
2023-02-05T15:43:37.720Z,7.22
2023-02-05T15:46:17.548Z,8.60
2023-02-05T15:48:47.782Z,5.57
2023-02-05T15:51:37.393Z,10.50
2023-02-05T15:54:08.252Z,6.63
2023-02-05T15:56:42.737Z,5.20
2023-02-05T15:59:29.238Z,8.60
2023-02-05T16:02:20.489Z,7.15
2023-02-05T16:05:17.538Z,6.40
2023-02-05T16:07:51.914Z,7.22
2023-02-05T16:10:34.897Z,6.80
2023-02-05T16:13:16.300Z,10.13
2023-02-05T16:15:57.596Z,5.97
2023-02-05T16:18:53.029Z,6.45
2023-02-05T16:21:31.345Z,6.43
2023-02-05T16:24:15.087Z,5.80
2023-02-05T16:27:04.963Z,6.82
2023-02-05T16:29:53.994Z,8.88
2023-02-05T16:32:42.496Z,8.73
2023-02-05T16:35:39.380Z,6.28
2023-02-05T16:38:23.309Z,10.63
2023-02-05T16:41:00.105Z,7.00
2023-02-05T16:43:40.202Z,5.78
2023-02-05T16:46:10.258Z,9.95
2023-02-05T16:48:49.342Z,10.18
2023-02-05T16:51:45.620Z,14.02
2023-02-05T16:54:18.291Z,12.15
2023-02-05T16:57:22.671Z,10.13
2023-02-05T17:00:21.397Z,14.02
2023-02-05T17:03:05.315Z,12.50
2023-02-05T17:05:37.282Z,14.40
2023-02-05T17:08:12.369Z,19.95
2023-02-05T17:10:55.191Z,21.73
2023-02-05T17:13:45.483Z,16.10
2023-02-05T17:16:28.085Z,16.00
2023-02-05T17:19:27.215Z,24.52
2023-02-05T17:22:15.452Z,18.58
2023-02-05T17:24:49.955Z,19.73
2023-02-05T17:27:32.239Z,20.45
2023-02-05T17:30:10.508Z,18.45
2023-02-05T17:32:40.734Z,19.38
2023-02-05T17:35:22.014Z,19.10
2023-02-05T17:37:53.757Z,20.58
2023-02-05T17:40:23.869Z,16.85
2023-02-05T17:42:53.893Z,19.73
2023-02-05T17:45:31.817Z,19.83
2023-02-05T17:48:02.408Z,19.67
2023-02-05T17:50:34.679Z,20.25
2023-02-05T17:53:04.692Z,19.05
2023-02-05T17:55:32.789Z,21.88
2023-02-05T17:58:00.916Z,19.70
2023-02-05T18:00:32.971Z,21.77
2023-02-05T18:03:03.419Z,17.50
2023-02-05T18:05:34.159Z,23.85
2023-02-05T18:08:06.402Z,19.20
2023-02-05T18:10:37.160Z,24.83
2023-02-05T18:13:07.432Z,21.63
2023-02-05T18:15:37.831Z,30.63
2023-02-05T18:18:08.158Z,30.20
2023-02-05T18:20:39.255Z,22.83
2023-02-05T18:23:12.334Z,31.45
2023-02-05T18:25:42.455Z,33.35
2023-02-05T18:28:12.588Z,52.45
2023-02-05T18:30:42.997Z,41.95
2023-02-05T18:33:11.455Z,47.72
2023-02-05T18:35:39.536Z,48.47
2023-02-05T18:38:07.894Z,56.47
2023-02-05T18:40:36.692Z,58.75
2023-02-05T18:43:04.928Z,73.70
2023-02-05T18:45:33.321Z,57.58
2023-02-05T18:48:03.677Z,59.58
2023-02-05T18:50:33.918Z,51.13
2023-02-05T18:53:01.856Z,40.67
2023-02-05T18:55:35.091Z,39.65
2023-02-05T18:58:05.760Z,36.67
2023-02-05T19:00:36.156Z,38.13
2023-02-05T19:03:06.305Z,34.35
2023-02-05T19:05:36.343Z,32.17
2023-02-05T19:08:06.664Z,36.47
2023-02-05T19:10:38.049Z,40.20
2023-02-05T19:13:09.298Z,39.97
2023-02-05T19:15:39.359Z,43.92
2023-02-05T19:18:09.420Z,33.47
2023-02-05T19:20:39.471Z,62.42
2023-02-05T19:23:09.944Z,51.08
2023-02-05T19:25:40.009Z,45.13
2023-02-05T19:28:10.093Z,41.70
2023-02-05T19:30:40.621Z,49.03
2023-02-05T19:33:10.708Z,51.03
2023-02-05T19:35:40.788Z,51.47
2023-02-05T19:38:10.885Z,46.83
2023-02-05T19:40:40.996Z,48.95
2023-02-05T19:43:11.069Z,47.22
2023-02-05T19:45:41.153Z,53.35
2023-02-05T19:48:09.572Z,55.17
2023-02-05T19:50:39.232Z,77.32
2023-02-05T19:53:09.751Z,134.52
2023-02-05T19:55:37.875Z,108.03
2023-02-05T19:58:06.370Z,83.32
2023-02-05T20:00:34.919Z,65.38
2023-02-05T20:03:03.093Z,62.92
2023-02-05T20:05:31.477Z,67.00
2023-02-05T20:07:59.897Z,61.47
2023-02-05T20:10:28.346Z,57.10
2023-02-05T20:12:56.697Z,50.97
2023-02-05T20:15:25.137Z,49.65
2023-02-05T20:17:53.857Z,47.83
2023-02-05T20:20:32.839Z,52.90
2023-02-05T20:23:03.744Z,53.05
2023-02-05T20:25:33.838Z,53.92
2023-02-05T20:28:04.430Z,50.97
2023-02-05T20:30:53.363Z,47.50
2023-02-05T20:33:23.485Z,51.83
2023-02-05T20:35:53.535Z,51.78
2023-02-05T20:38:23.550Z,56.30
2023-02-05T20:40:53.573Z,45.13
2023-02-05T20:43:23.675Z,53.60
2023-02-05T20:45:53.777Z,50.53
2023-02-05T20:48:23.945Z,49.70
2023-02-05T20:50:54.030Z,49.75
2023-02-05T20:53:24.130Z,48.42
2023-02-05T20:56:05.995Z,45.95
2023-02-05T20:58:37.008Z,48.90
2023-02-05T21:01:20.401Z,50.10
2023-02-05T21:03:57.816Z,53.42
2023-02-05T21:06:36.830Z,48.55
2023-02-05T21:09:10.036Z,52.90
2023-02-05T21:11:41.437Z,49.35
2023-02-05T21:14:12.344Z,55.20
2023-02-05T21:16:42.655Z,47.05
2023-02-05T21:19:12.792Z,58.88
2023-02-05T21:21:42.925Z,50.58
2023-02-05T21:24:16.306Z,58.28
2023-02-05T21:26:49.467Z,49.80
2023-02-05T21:29:21.627Z,47.03
2023-02-05T21:31:55.691Z,49.75
2023-02-05T21:34:29.719Z,49.72
2023-02-05T21:36:57.659Z,46.28
2023-02-05T21:39:26.520Z,57.75
2023-02-05T21:41:54.968Z,50.17
2023-02-05T21:44:24.265Z,56.22
2023-02-05T21:46:55.358Z,61.72
2023-02-05T21:49:22.932Z,53.70
2023-02-05T21:51:53.326Z,60.70
2023-02-05T21:54:25.694Z,61.10
2023-02-05T21:56:55.972Z,53.17
2023-02-05T21:59:26.056Z,57.75
2023-02-05T22:01:56.186Z,57.20
2023-02-05T22:04:26.352Z,55.60
2023-02-05T22:06:56.465Z,64.63
2023-02-05T22:09:26.579Z,62.30
2023-02-05T22:12:02.720Z,70.32
2023-02-05T22:14:36.012Z,59.03
2023-02-05T22:17:06.089Z,56.40
2023-02-05T22:19:36.168Z,66.95
2023-02-05T22:22:06.378Z,64.80
2023-02-05T22:24:36.466Z,56.55
2023-02-05T22:27:06.655Z,53.92
2023-02-05T22:29:36.708Z,55.60
2023-02-05T22:32:06.817Z,48.42
2023-02-05T22:34:37.017Z,54.95
2023-02-05T22:37:07.058Z,60.35
2023-02-05T22:39:37.147Z,60.20
2023-02-05T22:42:11.740Z,58.85
2023-02-05T22:44:42.111Z,66.45
2023-02-05T22:47:12.138Z,56.03
2023-02-05T22:49:42.263Z,60.85
2023-02-05T22:52:12.528Z,56.03
2023-02-05T22:54:42.675Z,57.75
2023-02-05T22:57:12.826Z,54.78
2023-02-05T22:59:42.905Z,60.10
2023-02-05T23:02:13.061Z,59.78
2023-02-05T23:04:43.169Z,55.25
2023-02-05T23:07:13.208Z,58.30
2023-02-05T23:09:43.350Z,58.53
2023-02-05T23:12:19.269Z,57.65
2023-02-05T23:14:49.491Z,48.90
2023-02-05T23:17:19.611Z,56.55
2023-02-05T23:19:53.850Z,53.58
2023-02-05T23:22:23.953Z,55.40
2023-02-05T23:24:52.453Z,60.28
2023-02-05T23:27:21.008Z,56.85
2023-02-05T23:29:49.450Z,54.88
2023-02-05T23:32:17.803Z,49.90
2023-02-05T23:34:46.213Z,54.17
2023-02-05T23:37:14.528Z,53.45
2023-02-05T23:39:43.029Z,70.75
2023-02-05T23:42:18.015Z,63.42
2023-02-05T23:44:47.838Z,50.95
2023-02-05T23:47:17.892Z,49.92
2023-02-05T23:49:48.011Z,35.55
2023-02-05T23:52:18.204Z,34.47
2023-02-05T23:54:48.283Z,37.22
2023-02-05T23:57:18.366Z,34.38
2023-02-05T23:59:48.125Z,32.83
